createdAt,value
2019-05-19T00:02:16.792Z,100018.00
2019-05-19T00:04:48.356Z,100020.62
2019-05-19T00:07:19.968Z,100009.73
2019-05-19T00:09:51.481Z,100006.73
2019-05-19T00:12:24.580Z,99995.73
2019-05-19T00:14:56.306Z,100004.72
2019-05-19T00:17:28.101Z,100014.20
2019-05-19T00:20:00.345Z,100010.33
2019-05-19T00:22:33.596Z,100015.33
2019-05-19T00:25:06.518Z,100011.64
2019-05-19T00:27:38.152Z,100020.63
2019-05-19T00:30:11.308Z,100014.80
2019-05-19T00:32:43.196Z,100017.66
2019-05-19T00:35:14.884Z,100011.98
2019-05-19T00:37:46.832Z,100012.64
2019-05-19T00:40:18.636Z,100010.22
2019-05-19T00:42:50.417Z,100016.05
2019-05-19T00:45:22.434Z,100011.87
2019-05-19T00:47:53.958Z,100014.88
2019-05-19T00:50:25.758Z,100018.16
2019-05-19T00:52:57.422Z,100025.62
2019-05-19T00:55:31.178Z,100027.70
2019-05-19T00:58:03.974Z,100037.09
2019-05-19T01:00:35.559Z,100042.35
2019-05-19T01:03:07.403Z,100031.57
2019-05-19T01:05:39.106Z,100029.59
2019-05-19T01:08:10.970Z,100033.52
2019-05-19T01:10:42.914Z,100034.48
2019-05-19T01:13:14.734Z,100036.73
2019-05-19T01:15:46.556Z,100041.12
2019-05-19T01:18:18.443Z,100044.81
2019-05-19T01:20:50.357Z,100051.85
2019-05-19T01:23:24.633Z,100052.91
2019-05-19T01:25:56.523Z,100053.94
2019-05-19T01:28:28.359Z,100050.82
2019-05-19T01:31:00.144Z,100059.16
2019-05-19T01:33:33.951Z,100068.05
2019-05-19T01:36:05.828Z,100062.98
2019-05-19T01:38:37.719Z,100077.80
2019-05-19T01:41:09.485Z,100070.11
2019-05-19T01:43:41.276Z,100071.79
2019-05-19T01:46:13.389Z,100065.13
2019-05-19T01:48:45.339Z,100067.80
2019-05-19T01:51:17.078Z,100068.06
2019-05-19T01:53:48.845Z,100064.36
2019-05-19T01:56:20.862Z,100065.27
2019-05-19T01:58:52.590Z,100057.09
2019-05-19T02:01:24.384Z,100059.90
2019-05-19T02:03:56.415Z,100066.89
2019-05-19T02:06:28.218Z,100066.60
2019-05-19T02:09:00.016Z,100078.23
2019-05-19T02:11:31.766Z,100074.19
2019-05-19T02:14:03.960Z,100073.20
2019-05-19T02:16:35.776Z,100077.54
2019-05-19T02:19:07.583Z,100080.63
2019-05-19T02:21:39.562Z,100067.72
2019-05-19T02:24:11.307Z,100068.83
2019-05-19T02:26:43.069Z,100074.23
2019-05-19T02:29:14.774Z,100074.06
2019-05-19T02:31:47.381Z,100076.99
2019-05-19T02:34:19.174Z,100081.41
2019-05-19T02:36:50.977Z,100082.74
2019-05-19T02:39:22.853Z,100083.22
2019-05-19T02:41:54.872Z,100081.35
2019-05-19T02:44:27.721Z,100076.83
2019-05-19T02:47:01.039Z,100083.01
2019-05-19T02:49:34.671Z,100083.61
2019-05-19T02:52:07.062Z,100081.93
2019-05-19T02:54:39.300Z,100084.73
2019-05-19T02:57:11.706Z,100082.54
2019-05-19T02:59:43.886Z,100088.40
2019-05-19T03:02:16.771Z,100086.51
2019-05-19T03:04:48.649Z,100092.57
2019-05-19T03:07:20.351Z,100088.77
2019-05-19T03:09:52.057Z,100090.99
2019-05-19T03:12:23.833Z,100086.65
2019-05-19T03:14:55.591Z,100096.42
2019-05-19T03:17:27.273Z,100090.77
2019-05-19T03:20:00.847Z,100085.55
2019-05-19T03:22:35.158Z,100095.62
2019-05-19T03:25:09.975Z,100097.81
2019-05-19T03:27:42.131Z,100094.67
2019-05-19T03:30:33.774Z,100093.02
2019-05-19T03:33:10.743Z,100095.73
2019-05-19T03:35:45.551Z,100098.72
2019-05-19T03:38:19.377Z,100098.20
2019-05-19T03:40:51.139Z,100095.66
2019-05-19T03:43:22.843Z,100096.93
2019-05-19T03:45:54.699Z,100100.50
2019-05-19T03:48:26.581Z,100096.45
2019-05-19T03:50:58.355Z,100091.47
2019-05-19T03:53:31.490Z,100093.78
2019-05-19T03:56:05.640Z,100094.07
2019-05-19T03:58:38.026Z,100097.59
2019-05-19T04:01:12.679Z,100103.41
2019-05-19T04:03:45.592Z,100095.02
2019-05-19T04:06:22.926Z,100096.28
2019-05-19T04:08:55.629Z,100104.16
2019-05-19T04:11:27.372Z,100093.41
2019-05-19T04:13:59.169Z,100103.62
2019-05-19T04:16:30.998Z,100102.73
2019-05-19T04:19:02.806Z,100108.09
2019-05-19T04:21:48.304Z,100108.06
2019-05-19T04:24:07.848Z,100109.36
2019-05-19T04:26:40.600Z,100116.67
2019-05-19T04:29:12.305Z,100115.95
2019-05-19T04:31:43.764Z,100109.32
2019-05-19T04:34:15.354Z,100103.73
2019-05-19T04:36:48.519Z,100103.27
2019-05-19T04:39:20.071Z,100106.64
2019-05-19T04:41:54.074Z,100106.48
2019-05-19T04:44:26.872Z,100093.67
2019-05-19T04:46:58.442Z,100102.38
2019-05-19T04:49:29.996Z,100098.27
2019-05-19T04:52:06.578Z,100102.56
2019-05-19T04:54:34.767Z,100106.86
2019-05-19T04:57:07.445Z,100104.50
2019-05-19T04:59:38.943Z,100118.94
2019-05-19T05:02:10.776Z,100113.72
2019-05-19T05:04:42.452Z,100111.67
2019-05-19T05:07:14.030Z,100116.21
2019-05-19T05:09:45.788Z,100124.94
2019-05-19T05:12:18.872Z,100113.88
2019-05-19T05:14:51.780Z,100117.58
2019-05-19T05:17:25.776Z,100115.83
2019-05-19T05:19:58.888Z,100117.08
2019-05-19T05:22:31.784Z,100122.68
2019-05-19T05:25:04.730Z,100121.36
2019-05-19T05:27:37.600Z,100124.48
2019-05-19T05:30:09.989Z,100127.63
2019-05-19T05:32:42.013Z,100128.21
2019-05-19T05:35:17.616Z,100139.34
2019-05-19T05:37:49.151Z,100132.23
2019-05-19T05:40:21.693Z,100139.22
2019-05-19T05:42:53.499Z,100134.54
2019-05-19T05:45:25.168Z,100133.45
2019-05-19T05:47:58.535Z,100132.67
2019-05-19T05:50:30.053Z,100144.64
2019-05-19T05:53:01.910Z,100142.65
2019-05-19T05:55:34.730Z,100145.99
2019-05-19T05:58:07.579Z,100140.56
2019-05-19T06:00:42.192Z,100129.81
2019-05-19T06:03:14.735Z,100134.52
2019-05-19T06:05:48.020Z,100137.31
2019-05-19T06:08:19.816Z,100149.47
2019-05-19T06:14:39.420Z,100139.08
2019-05-19T06:17:11.205Z,100138.12
2019-05-19T06:19:42.781Z,100135.91
2019-05-19T06:22:14.356Z,100143.55
2019-05-19T06:24:45.987Z,100137.02
2019-05-19T06:27:17.578Z,100135.14
2019-05-19T06:29:50.576Z,100134.34
2019-05-19T06:32:35.975Z,100129.28
2019-05-19T06:35:08.223Z,100137.57
2019-05-19T06:37:39.688Z,100148.35
2019-05-19T06:40:12.707Z,100142.68
2019-05-19T06:42:44.244Z,100138.60
2019-05-19T06:45:16.124Z,100145.34
2019-05-19T06:47:47.659Z,100140.30
2019-05-19T06:50:19.348Z,100146.20
2019-05-19T06:52:50.950Z,100150.73
2019-05-19T06:55:22.576Z,100151.15
2019-05-19T06:57:54.141Z,100146.42
2019-05-19T07:00:27.642Z,100148.11
2019-05-19T07:02:59.383Z,100145.50
2019-05-19T07:05:31.483Z,100149.33
2019-05-19T07:08:03.016Z,100144.19
2019-05-19T07:10:34.666Z,100148.52
2019-05-19T07:13:07.385Z,100145.13
2019-05-19T07:15:39.090Z,100154.80
2019-05-19T07:18:11.205Z,100143.72
2019-05-19T07:20:42.720Z,100140.89
2019-05-19T07:23:27.358Z,100146.78
2019-05-19T07:25:48.140Z,100136.84
2019-05-19T07:28:19.688Z,100141.14
2019-05-19T07:30:51.170Z,100149.23
2019-05-19T07:33:22.706Z,100144.19
2019-05-19T07:35:54.222Z,100147.14
2019-05-19T07:38:25.720Z,100138.66
2019-05-19T07:40:58.543Z,100147.36
2019-05-19T07:43:30.231Z,100143.67
2019-05-19T07:46:01.872Z,100141.43
2019-05-19T07:48:33.428Z,100135.61
2019-05-19T07:51:04.987Z,100135.98
2019-05-19T07:53:43.100Z,100139.50
2019-05-19T07:56:10.723Z,100141.05
2019-05-19T07:58:42.260Z,100150.16
2019-05-19T08:01:14.059Z,100155.45
2019-05-19T08:03:46.301Z,100146.48
2019-05-19T08:06:17.910Z,100141.55
2019-05-19T08:08:49.625Z,100140.96
2019-05-19T08:11:21.114Z,100148.38
2019-05-19T08:13:53.162Z,100141.47
2019-05-19T08:16:24.691Z,100145.02
2019-05-19T08:18:56.231Z,100142.72
2019-05-19T08:21:27.852Z,100145.31
2019-05-19T08:24:01.033Z,100147.09
2019-05-19T08:26:32.542Z,100141.27
2019-05-19T08:29:04.064Z,100141.56
2019-05-19T08:31:37.022Z,100152.81
2019-05-19T08:34:08.734Z,100154.30
2019-05-19T08:36:40.326Z,100143.44
2019-05-19T08:39:11.771Z,100144.23
2019-05-19T08:41:43.255Z,100137.42
2019-05-19T08:44:14.781Z,100139.08
2019-05-19T08:46:46.260Z,100138.47
2019-05-19T08:49:17.725Z,100139.20
2019-05-19T08:51:50.237Z,100137.95
2019-05-19T08:54:21.901Z,100132.72
2019-05-19T08:56:53.348Z,100157.71
2019-05-19T08:59:26.465Z,100142.83
2019-05-19T09:01:59.343Z,100145.50
2019-05-19T09:04:31.974Z,100146.31
2019-05-19T09:07:04.050Z,100136.33
2019-05-19T09:09:35.467Z,100132.16
2019-05-19T09:12:06.938Z,100136.71
2019-05-19T09:14:38.574Z,100128.37
2019-05-19T09:17:10.064Z,100139.13
2019-05-19T09:19:41.839Z,100133.59
2019-05-19T09:22:13.326Z,100140.41
2019-05-19T09:24:44.853Z,100128.89
2019-05-19T09:27:16.354Z,100132.69
2019-05-19T09:29:48.404Z,100125.36
2019-05-19T09:32:19.898Z,100124.73
2019-05-19T09:34:51.350Z,100122.44
2019-05-19T09:37:22.892Z,100126.92
2019-05-19T09:39:54.447Z,100139.29
2019-05-19T09:42:27.583Z,100122.02
2019-05-19T09:44:59.040Z,100127.75
2019-05-19T09:47:31.446Z,100128.74
2019-05-19T09:50:03.001Z,100126.39
2019-05-19T09:52:34.394Z,100128.53
2019-05-19T09:55:06.779Z,100124.63
2019-05-19T09:57:38.321Z,100123.99
2019-05-19T10:00:10.340Z,100125.88
2019-05-19T10:02:41.959Z,100120.16
2019-05-19T10:05:13.686Z,100122.55
2019-05-19T10:07:48.348Z,100127.53
2019-05-19T10:10:23.445Z,100118.91
2019-05-19T10:12:54.282Z,100123.19
2019-05-19T10:15:25.634Z,100129.18
2019-05-19T10:17:57.540Z,100130.26
2019-05-19T10:20:29.024Z,100140.33
2019-05-19T10:23:00.609Z,100129.73
2019-05-19T10:25:32.197Z,100135.77
2019-05-19T10:28:03.692Z,100134.94
2019-05-19T10:30:35.268Z,100126.72
2019-05-19T10:33:06.782Z,100126.41
2019-05-19T10:35:38.356Z,100127.55
2019-05-19T10:38:09.898Z,100117.03
2019-05-19T10:40:41.410Z,100120.05
2019-05-19T10:43:15.882Z,100113.91
2019-05-19T10:45:48.949Z,100118.78
2019-05-19T10:48:20.552Z,100117.02
2019-05-19T10:50:52.290Z,100112.64
2019-05-19T10:53:24.681Z,100118.48
2019-05-19T10:55:56.292Z,100120.76
2019-05-19T10:58:31.961Z,100114.83
2019-05-19T11:01:06.239Z,100112.14
2019-05-19T11:03:38.389Z,100112.64
2019-05-19T11:06:10.150Z,100116.08
2019-05-19T11:08:41.685Z,100110.58
2019-05-19T11:11:13.181Z,100109.62
2019-05-19T11:13:44.722Z,100123.97
2019-05-19T11:16:16.255Z,100113.03
2019-05-19T11:18:47.748Z,100117.94
2019-05-19T11:21:19.309Z,100121.98
2019-05-19T11:23:50.790Z,100117.64
2019-05-19T11:26:22.297Z,100125.02
2019-05-19T11:28:55.893Z,100136.16
2019-05-19T11:31:28.736Z,100125.14
2019-05-19T11:34:00.447Z,100126.20
2019-05-19T11:36:33.177Z,100128.86
2019-05-19T11:39:07.020Z,100129.53
2019-05-19T11:41:38.608Z,100126.93
2019-05-19T11:44:10.123Z,100118.59
2019-05-19T11:46:42.152Z,100134.02
2019-05-19T11:49:13.683Z,100129.97
2019-05-19T11:51:45.214Z,100130.89
2019-05-19T11:54:16.724Z,100131.23
2019-05-19T11:56:48.245Z,100124.02
2019-05-19T11:59:19.777Z,100127.10
2019-05-19T12:01:51.282Z,100128.34
2019-05-19T12:04:22.796Z,100132.52
2019-05-19T12:06:54.828Z,100123.56
2019-05-19T12:09:26.314Z,100128.89
2019-05-19T12:11:57.932Z,100127.57
2019-05-19T12:14:29.492Z,100128.59
2019-05-19T12:17:01.418Z,100128.11
2019-05-19T12:19:33.485Z,100128.11
2019-05-19T12:22:05.350Z,100119.79
2019-05-19T12:24:36.859Z,100116.47
2019-05-19T12:27:08.403Z,100121.45
2019-05-19T12:29:39.901Z,100117.39
2019-05-19T12:32:11.381Z,100124.02
2019-05-19T12:34:45.526Z,100120.47
2019-05-19T12:37:17.048Z,100130.27
2019-05-19T12:39:48.505Z,100127.34
2019-05-19T12:42:20.231Z,100119.05
2019-05-19T12:44:53.482Z,100127.03
2019-05-19T12:47:24.969Z,100128.44
2019-05-19T12:49:56.480Z,100124.05
2019-05-19T12:52:28.015Z,100121.34
2019-05-19T12:54:59.563Z,100126.13
2019-05-19T12:57:31.234Z,100129.50
2019-05-19T13:00:02.784Z,100126.81
2019-05-19T13:02:38.107Z,100129.27
2019-05-19T13:05:10.222Z,100121.23
2019-05-19T13:07:42.301Z,100121.40
2019-05-19T13:10:20.217Z,100129.48
2019-05-19T13:12:51.858Z,100121.62
2019-05-19T13:15:23.503Z,100124.98
2019-05-19T13:17:55.227Z,100115.31
2019-05-19T13:20:26.867Z,100130.80
2019-05-19T13:22:58.387Z,100125.59
2019-05-19T13:25:29.810Z,100125.47
2019-05-19T13:28:02.332Z,100119.13
2019-05-19T13:30:33.868Z,100129.50
2019-05-19T13:33:05.929Z,100124.33
2019-05-19T13:35:38.910Z,100127.47
2019-05-19T13:38:10.441Z,100133.12
2019-05-19T13:40:41.945Z,100127.10
2019-05-19T13:43:14.939Z,100130.55
2019-05-19T13:45:46.451Z,100127.41
2019-05-19T13:48:18.349Z,100129.59
2019-05-19T13:50:49.864Z,100130.73
2019-05-19T13:53:22.566Z,100126.59
2019-05-19T13:55:54.080Z,100125.15
2019-05-19T13:58:25.601Z,100124.84
2019-05-19T14:00:57.103Z,100134.31
2019-05-19T14:03:29.000Z,100128.77
2019-05-19T14:06:00.472Z,100127.85
2019-05-19T14:08:31.948Z,100135.84
2019-05-19T14:11:06.005Z,100134.41
2019-05-19T14:13:37.503Z,100139.30
2019-05-19T14:16:08.940Z,100146.98
2019-05-19T14:18:41.561Z,100135.42
2019-05-19T14:21:13.076Z,100154.17
2019-05-19T14:23:44.586Z,100143.97
2019-05-19T14:26:17.715Z,100138.55
2019-05-19T14:28:49.226Z,100143.66
2019-05-19T14:31:20.722Z,100146.05
2019-05-19T14:33:52.671Z,100144.17
2019-05-19T14:36:24.860Z,100147.92
2019-05-19T14:39:05.303Z,100140.97
2019-05-19T14:41:36.754Z,100143.05
2019-05-19T14:44:08.254Z,100144.78
2019-05-19T14:46:39.784Z,100142.20
2019-05-19T14:49:11.196Z,100139.70
2019-05-19T14:51:42.702Z,100137.62
2019-05-19T14:54:15.654Z,100140.53
2019-05-19T14:56:47.275Z,100142.30
2019-05-19T14:59:18.865Z,100140.61
2019-05-19T15:01:50.366Z,100139.26
2019-05-19T15:04:21.865Z,100135.91
2019-05-19T15:06:53.376Z,100144.27
2019-05-19T15:09:24.942Z,100141.09
2019-05-19T15:11:56.449Z,100132.78
2019-05-19T15:14:27.998Z,100142.44
2019-05-19T15:16:59.528Z,100146.27
2019-05-19T15:19:31.077Z,100134.52
2019-05-19T15:22:02.574Z,100139.60
2019-05-19T15:24:34.106Z,100143.73
2019-05-19T15:27:05.569Z,100139.79
2019-05-19T15:29:37.200Z,100135.53
2019-05-19T15:32:08.707Z,100137.48
2019-05-19T15:34:40.232Z,100138.41
2019-05-19T15:37:12.065Z,100143.16
2019-05-19T15:39:45.127Z,100146.59
2019-05-19T15:42:16.635Z,100145.94
2019-05-19T15:44:48.158Z,100156.66
2019-05-19T15:47:20.226Z,100154.28
2019-05-19T15:49:51.728Z,100149.33
2019-05-19T15:52:23.254Z,100154.66
2019-05-19T15:54:56.152Z,100159.84
2019-05-19T15:57:28.728Z,100167.48
2019-05-19T16:00:00.355Z,100158.30
2019-05-19T16:02:34.549Z,100159.97
2019-05-19T16:05:07.763Z,100158.92
2019-05-19T16:07:39.269Z,100162.11
2019-05-19T16:10:10.891Z,100159.19
2019-05-19T16:12:42.375Z,100160.95
2019-05-19T16:15:14.285Z,100163.75
2019-05-19T16:17:45.796Z,100164.10
2019-05-19T16:20:17.411Z,100167.28
2019-05-19T16:22:49.026Z,100165.10
2019-05-19T16:25:20.609Z,100166.86
2019-05-19T16:27:52.474Z,100183.17
2019-05-19T16:30:24.053Z,100172.53
2019-05-19T16:32:55.562Z,100179.63
2019-05-19T16:35:29.302Z,100183.13
2019-05-19T16:38:02.246Z,100186.70
2019-05-19T16:40:34.450Z,100185.69
2019-05-19T16:43:07.879Z,100187.23
2019-05-19T16:45:39.287Z,100190.14
2019-05-19T16:48:10.765Z,100192.23
2019-05-19T16:50:42.293Z,100195.36
2019-05-19T16:53:14.423Z,100191.82
2019-05-19T16:55:45.855Z,100190.42
2019-05-19T16:58:21.478Z,100196.71
2019-05-19T17:00:51.542Z,100192.49
2019-05-19T17:03:23.039Z,100188.84
2019-05-19T17:05:55.509Z,100197.45
2019-05-19T17:08:27.038Z,100198.86
2019-05-19T17:10:58.584Z,100196.97
2019-05-19T17:13:30.176Z,100204.30
2019-05-19T17:16:02.169Z,100202.07
2019-05-19T17:18:34.037Z,100203.63
2019-05-19T17:21:05.850Z,100212.16
2019-05-19T17:23:38.878Z,100212.03
2019-05-19T17:26:12.446Z,100207.75
2019-05-19T17:28:59.600Z,100211.46
2019-05-19T17:31:19.391Z,100210.14
2019-05-19T17:33:56.657Z,100212.67
2019-05-19T17:36:28.556Z,100212.91
2019-05-19T17:39:00.509Z,100217.70
2019-05-19T17:41:33.915Z,100219.56
2019-05-19T17:44:06.054Z,100224.99
2019-05-19T17:46:39.134Z,100221.34
2019-05-19T17:49:10.621Z,100227.91
2019-05-19T17:51:42.108Z,100228.29
2019-05-19T17:54:13.612Z,100237.37
2019-05-19T17:56:47.168Z,100237.88
2019-05-19T17:59:18.987Z,100234.08
2019-05-19T18:01:51.913Z,100242.18
2019-05-19T18:04:23.408Z,100241.02
2019-05-19T18:06:54.929Z,100243.56
2019-05-19T18:09:26.929Z,100248.09
2019-05-19T18:11:58.438Z,100247.97
2019-05-19T18:14:30.946Z,100251.02
2019-05-19T18:17:02.464Z,100251.23
2019-05-19T18:19:33.964Z,100251.77
2019-05-19T18:22:06.480Z,100259.12
2019-05-19T18:24:39.636Z,100257.45
2019-05-19T18:27:11.363Z,100267.52
2019-05-19T18:29:46.214Z,100267.22
2019-05-19T18:32:17.740Z,100270.23
2019-05-19T18:34:49.242Z,100269.73
2019-05-19T18:37:22.495Z,100267.53
2019-05-19T18:39:54.031Z,100272.56
2019-05-19T18:42:25.894Z,100271.38
2019-05-19T18:44:57.876Z,100278.42
2019-05-19T18:47:29.382Z,100270.71
2019-05-19T18:50:01.079Z,100273.71
2019-05-19T18:52:33.066Z,100272.52
2019-05-19T18:55:07.563Z,100276.70
2019-05-19T18:57:39.227Z,100277.05
2019-05-19T19:00:12.009Z,100279.56
2019-05-19T19:02:47.876Z,100282.56
2019-05-19T19:05:18.197Z,100285.59
2019-05-19T19:07:52.069Z,100285.92
2019-05-19T19:10:23.592Z,100284.59
2019-05-19T19:12:55.120Z,100286.25
2019-05-19T19:15:26.715Z,100282.91
2019-05-19T19:17:58.249Z,100284.25
2019-05-19T19:20:29.932Z,100291.42
2019-05-19T19:23:01.762Z,100293.94
2019-05-19T19:25:33.409Z,100300.29
2019-05-19T19:28:04.917Z,100305.78
2019-05-19T19:30:36.635Z,100302.30
2019-05-19T19:33:09.990Z,100304.30
2019-05-19T19:35:43.628Z,100304.31
2019-05-19T19:38:15.771Z,100300.27
2019-05-19T19:40:48.811Z,100301.60
2019-05-19T19:43:21.000Z,100300.27
2019-05-19T19:45:52.513Z,100301.70
2019-05-19T19:48:24.540Z,100300.20
2019-05-19T19:50:57.496Z,100302.88
2019-05-19T19:53:31.471Z,100302.38
2019-05-19T19:56:05.102Z,100304.02
2019-05-19T19:58:36.656Z,100297.97
2019-05-19T20:01:10.692Z,100309.84
2019-05-19T20:03:42.749Z,100305.16
2019-05-19T20:06:17.904Z,100313.03
2019-05-19T20:08:51.061Z,100310.02
2019-05-19T20:11:25.515Z,100311.16
2019-05-19T20:13:58.716Z,100306.93
2019-05-19T20:16:32.514Z,100310.14
2019-05-19T20:19:04.000Z,100311.16
2019-05-19T20:21:36.420Z,100314.66
2019-05-19T20:24:07.877Z,100316.84
2019-05-19T20:26:39.370Z,100317.80
2019-05-19T20:29:16.231Z,100319.14
2019-05-19T20:31:47.656Z,100315.83
2019-05-19T20:34:19.093Z,100323.66
2019-05-19T20:36:50.602Z,100314.75
2019-05-19T20:39:22.031Z,100317.21
2019-05-19T20:41:53.592Z,100315.55
2019-05-19T20:44:25.214Z,100317.84
2019-05-19T20:46:56.682Z,100323.52
2019-05-19T20:49:28.207Z,100329.04
2019-05-19T20:52:01.261Z,100330.38
2019-05-19T20:54:33.158Z,100335.52
2019-05-19T20:57:06.328Z,100341.35
2019-05-19T20:59:38.958Z,100350.90
2019-05-19T21:02:10.779Z,100348.66
2019-05-19T21:04:43.999Z,100350.79
2019-05-19T21:07:15.600Z,100360.02
2019-05-19T21:09:47.121Z,100365.72
2019-05-19T21:12:18.733Z,100374.87
2019-05-19T21:14:50.245Z,100373.42
2019-05-19T21:17:21.812Z,100369.64
2019-05-19T21:19:54.975Z,100370.84
2019-05-19T21:22:26.568Z,100368.17
2019-05-19T21:24:58.095Z,100368.87
2019-05-19T21:27:29.626Z,100364.53
2019-05-19T21:30:01.200Z,100368.81
2019-05-19T21:32:32.818Z,100369.48
2019-05-19T21:35:06.514Z,100375.48
2019-05-19T21:37:38.046Z,100377.45
2019-05-19T21:40:09.799Z,100381.37
2019-05-19T21:42:41.223Z,100389.98
2019-05-19T21:45:12.819Z,100384.12
2019-05-19T21:47:44.313Z,100386.98
2019-05-19T21:50:15.967Z,100388.12
2019-05-19T21:52:47.680Z,100391.82
2019-05-19T21:55:19.179Z,100389.34
2019-05-19T21:57:50.846Z,100386.48
2019-05-19T22:00:24.023Z,100390.95
2019-05-19T22:02:57.354Z,100391.58
2019-05-19T22:05:28.850Z,100395.72
2019-05-19T22:08:04.523Z,100397.50
2019-05-19T22:10:36.060Z,100398.44
2019-05-19T22:13:07.509Z,100396.27
2019-05-19T22:15:39.002Z,100392.56
2019-05-19T22:18:10.536Z,100398.06
2019-05-19T22:20:42.104Z,100396.33
2019-05-19T22:23:13.588Z,100399.62
2019-05-19T22:25:45.091Z,100403.56
2019-05-19T22:28:16.627Z,100402.38
2019-05-19T22:30:48.701Z,100404.92
2019-05-19T22:33:20.154Z,100408.67
2019-05-19T22:35:51.664Z,100407.75
2019-05-19T22:38:23.079Z,100407.34
2019-05-19T22:40:54.503Z,100408.98
2019-05-19T22:43:27.647Z,100411.58
2019-05-19T22:45:59.252Z,100419.59
2019-05-19T22:48:31.876Z,100420.05
2019-05-19T22:51:03.384Z,100421.42
2019-05-19T22:53:35.813Z,100422.76
2019-05-19T22:56:07.464Z,100412.63
2019-05-19T22:58:41.574Z,100416.28
2019-05-19T23:01:12.075Z,100418.04
2019-05-19T23:03:43.514Z,100425.55
2019-05-19T23:06:14.952Z,100427.45
2019-05-19T23:08:46.466Z,100434.47
2019-05-19T23:11:17.897Z,100432.38
2019-05-19T23:13:49.336Z,100432.38
2019-05-19T23:16:20.845Z,100432.55
2019-05-19T23:18:52.537Z,100433.60
2019-05-19T23:21:23.974Z,100436.34
2019-05-19T23:23:55.397Z,100441.97
2019-05-19T23:26:26.845Z,100445.41
2019-05-19T23:28:58.289Z,100445.41
2019-05-19T23:31:29.839Z,100438.66
2019-05-19T23:34:01.387Z,100437.48
2019-05-19T23:36:32.831Z,100444.84
2019-05-19T23:39:06.523Z,100443.66
2019-05-19T23:41:39.086Z,100442.44
2019-05-19T23:44:12.932Z,100436.76
2019-05-19T23:46:46.160Z,100435.57
2019-05-19T23:49:18.613Z,100436.27
2019-05-19T23:51:50.104Z,100442.03
2019-05-19T23:54:22.792Z,100441.65
2019-05-19T23:56:54.317Z,100438.38
2019-05-19T23:59:27.999Z,100442.23
